Time;durP1;ratioP1;P1;durP2;ratioP2;P2;SDS_P1;SDS_P2;PMS_P1;PMS_P2;Temp;Humidity;BMP_temperature;BMP_pressure;BME280_temperature;BME280_humidity;BME280_pressure;Samples;Min_cycle;Max_cycle;Signal;HPM_P1;HPM_P2
2023/01/02 00:02:00;;;;;;;;;;;12.80;99.90;;;;;;5087098;28;19926;-70
2023/01/02 00:04:25;;;;;;;;;;;12.80;99.90;;;;;;5088920;28;19916;-68
2023/01/02 00:06:51;;;;;;;;;;;12.80;99.90;;;;;;5090329;28;19916;-68
2023/01/02 00:09:17;;;;;;;;;;;12.80;99.90;;;;;;5090993;28;19916;-68
2023/01/02 00:11:42;;;;;;;;;;;12.80;99.90;;;;;;5089019;28;19942;-68
2023/01/02 00:14:08;;;;;;;;;;;12.80;99.90;;;;;;5083904;28;20370;-68
2023/01/02 00:16:33;;;;;;;;;;;12.80;99.90;;;;;;5095657;27;19923;-67
2023/01/02 00:18:58;;;;;;;;;;;12.80;99.90;;;;;;5081933;28;19993;-68
2023/01/02 00:21:24;;;;;;;;;;;12.80;99.90;;;;;;5086902;28;19928;-68
2023/01/02 00:23:49;;;;;;;;;;;12.80;99.90;;;;;;5087115;28;20232;-68
2023/01/02 00:26:15;;;;;;;;;;;12.80;99.90;;;;;;5094732;27;19915;-68
2023/01/02 00:28:40;;;;;;;;;;;12.80;99.90;;;;;;5083766;27;19916;-70
2023/01/02 00:31:06;;;;;;;;;;;12.80;99.90;;;;;;5084423;28;19920;-67
2023/01/02 00:33:32;;;;;;;;;;;12.80;99.90;;;;;;5083973;28;20402;-67
2023/01/02 00:35:57;;;;;;;;;;;12.80;99.90;;;;;;5083341;28;20097;-71
2023/01/02 00:38:23;;;;;;;;;;;12.80;99.90;;;;;;5081274;28;20000;-68
2023/01/02 00:40:48;;;;;;;;;;;12.80;99.90;;;;;;5091117;28;19924;-68
2023/01/02 00:43:16;;;;;;;;;;;12.70;99.90;;;;;;5088680;28;21499;-69
2023/01/02 00:45:42;;;;;;;;;;;12.70;99.90;;;;;;5086890;27;20449;-68
2023/01/02 00:48:07;;;;;;;;;;;12.80;99.90;;;;;;5087110;28;20014;-68
2023/01/02 00:50:33;;;;;;;;;;;12.70;99.90;;;;;;5094261;28;19984;-67
2023/01/02 00:52:58;;;;;;;;;;;12.80;99.90;;;;;;5083603;28;19922;-67
2023/01/02 00:55:23;;;;;;;;;;;12.70;99.90;;;;;;5086390;28;20503;-68
2023/01/02 00:57:49;;;;;;;;;;;12.70;99.90;;;;;;5082609;28;19920;-68
2023/01/02 01:00:14;;;;;;;;;;;12.70;99.90;;;;;;5079352;28;19957;-69
2023/01/02 01:02:40;;;;;;;;;;;12.70;99.90;;;;;;5084532;28;19928;-68
2023/01/02 01:05:05;;;;;;;;;;;12.70;99.90;;;;;;5086371;28;19916;-68
2023/01/02 01:07:31;;;;;;;;;;;12.60;99.90;;;;;;5085583;28;19916;-68
2023/01/02 01:09:56;;;;;;;;;;;12.60;99.90;;;;;;5085509;28;19915;-67
2023/01/02 01:12:22;;;;;;;;;;;12.60;99.90;;;;;;5085078;28;19912;-67
2023/01/02 01:14:47;;;;;;;;;;;12.60;99.90;;;;;;5082829;28;19916;-66
2023/01/02 01:17:12;;;;;;;;;;;12.60;99.90;;;;;;5084579;28;20014;-69
2023/01/02 01:19:38;;;;;;;;;;;12.60;99.90;;;;;;5086410;28;19922;-69
2023/01/02 01:22:03;;;;;;;;;;;12.60;99.90;;;;;;5083004;28;19920;-68
2023/01/02 01:24:29;;;;;;;;;;;12.60;99.90;;;;;;5077789;28;19920;-69
2023/01/02 01:26:54;;;;;;;;;;;12.60;99.90;;;;;;5085954;28;19920;-68
2023/01/02 01:29:19;;;;;;;;;;;12.60;99.90;;;;;;5083850;28;19927;-68
2023/01/02 01:31:45;;;;;;;;;;;12.60;99.90;;;;;;5076648;28;20374;-68
2023/01/02 01:34:11;;;;;;;;;;;12.60;99.90;;;;;;5084067;28;19912;-68
2023/01/02 01:36:36;;;;;;;;;;;12.70;99.90;;;;;;5084951;28;19916;-68
2023/01/02 01:39:02;;;;;;;;;;;12.70;99.90;;;;;;5082415;28;19913;-68
2023/01/02 01:41:27;;;;;;;;;;;12.70;99.90;;;;;;5083682;28;19920;-67
2023/01/02 01:44:00;;;;;;;;;;;12.70;99.90;;;;;;5086473;28;19919;-68
2023/01/02 01:46:27;;;;;;;;;;;12.70;99.90;;;;;;5086902;27;20002;-68
2023/01/02 01:49:16;;;;;;;;;;;12.70;99.90;;;;;;5089931;28;19919;-68
2023/01/02 01:51:51;;;;;;;;;;;12.70;99.90;;;;;;5076960;27;19923;-69
2023/01/02 01:54:19;;;;;;;;;;;12.70;99.90;;;;;;5078392;27;19916;-69
2023/01/02 01:56:47;;;;;;;;;;;12.70;99.90;;;;;;5080360;27;19920;-70
2023/01/02 01:59:13;;;;;;;;;;;12.80;99.90;;;;;;5083201;28;19935;-67
2023/01/02 02:01:40;;;;;;;;;;;12.80;99.90;;;;;;5086167;28;20374;-67
2023/01/02 02:04:06;;;;;;;;;;;12.80;99.90;;;;;;5084070;27;20515;-67
2023/01/02 02:06:31;;;;;;;;;;;12.80;99.90;;;;;;5080568;28;19920;-68
2023/01/02 02:09:00;;;;;;;;;;;12.80;99.90;;;;;;5086733;28;19912;-68
2023/01/02 02:11:25;;;;;;;;;;;12.70;99.90;;;;;;5084585;27;19912;-68
2023/01/02 02:13:52;;;;;;;;;;;12.70;99.90;;;;;;5092509;28;19968;-67
2023/01/02 02:16:33;;;;;;;;;;;12.80;99.90;;;;;;5086836;27;20362;-68
2023/01/02 02:19:17;;;;;;;;;;;12.80;99.90;;;;;;5083423;27;19912;-69
2023/01/02 02:21:56;;;;;;;;;;;12.70;99.90;;;;;;5086108;27;20022;-68
2023/01/02 02:24:40;;;;;;;;;;;12.80;99.90;;;;;;5088721;27;19916;-68
2023/01/02 02:27:24;;;;;;;;;;;12.80;99.90;;;;;;5087148;27;20374;-68
2023/01/02 02:29:49;;;;;;;;;;;12.80;99.90;;;;;;5089444;27;20463;-69
2023/01/02 02:32:24;;;;;;;;;;;12.80;99.90;;;;;;5085668;28;20376;-67
2023/01/02 02:34:56;;;;;;;;;;;12.80;99.90;;;;;;5088669;28;19916;-66
2023/01/02 02:37:22;;;;;;;;;;;12.80;99.90;;;;;;5084143;28;20218;-71
2023/01/02 02:39:59;;;;;;;;;;;12.90;99.90;;;;;;5088356;27;19915;-73
2023/01/02 02:42:35;;;;;;;;;;;12.90;99.90;;;;;;5086955;28;19927;-73
2023/01/02 02:45:19;;;;;;;;;;;12.90;99.90;;;;;;5084505;27;20327;-68
2023/01/02 02:47:50;;;;;;;;;;;12.90;99.90;;;;;;5089006;27;20015;-68
2023/01/02 02:50:21;;;;;;;;;;;12.90;99.90;;;;;;5089219;27;19969;-68
2023/01/02 02:53:03;;;;;;;;;;;12.90;99.90;;;;;;5085687;28;19916;-68
2023/01/02 02:55:35;;;;;;;;;;;12.90;99.90;;;;;;5079490;27;19990;-69
2023/01/02 02:58:01;;;;;;;;;;;13.00;99.90;;;;;;5083193;28;19918;-69
2023/01/02 03:00:26;;;;;;;;;;;12.90;99.90;;;;;;5085650;27;19912;-68
2023/01/02 03:02:52;;;;;;;;;;;12.90;99.90;;;;;;5083991;28;20026;-68
2023/01/02 03:05:24;;;;;;;;;;;12.90;99.90;;;;;;5086072;27;20297;-68
2023/01/02 03:07:56;;;;;;;;;;;12.90;99.90;;;;;;5088145;28;19920;-69
2023/01/02 03:10:25;;;;;;;;;;;13.00;99.90;;;;;;5083282;28;20435;-68
2023/01/02 03:13:16;;;;;;;;;;;13.00;99.90;;;;;;5078634;28;19923;-68
2023/01/02 03:15:58;;;;;;;;;;;13.00;99.90;;;;;;5078305;28;19977;-67
2023/01/02 03:18:33;;;;;;;;;;;13.00;99.90;;;;;;5076526;28;20396;-68
2023/01/02 03:21:06;;;;;;;;;;;13.00;99.90;;;;;;5085248;28;20271;-68
2023/01/02 03:23:33;;;;;;;;;;;13.00;99.90;;;;;;5079727;28;20026;-68
2023/01/02 03:25:59;;;;;;;;;;;13.00;99.90;;;;;;5078422;27;19916;-68
2023/01/02 03:28:25;;;;;;;;;;;13.00;99.90;;;;;;5082727;28;20377;-67
2023/01/02 03:30:53;;;;;;;;;;;13.00;99.90;;;;;;5087037;27;19915;-67
2023/01/02 03:33:22;;;;;;;;;;;13.00;99.90;;;;;;5089611;28;19916;-68
2023/01/02 03:35:53;;;;;;;;;;;13.00;99.90;;;;;;5082507;28;19912;-68
2023/01/02 03:38:22;;;;;;;;;;;13.00;99.90;;;;;;5085920;28;19955;-66
2023/01/02 03:40:49;;;;;;;;;;;13.00;99.90;;;;;;5078098;27;20435;-66
2023/01/02 03:43:20;;;;;;;;;;;13.00;99.90;;;;;;5077944;28;19920;-66
2023/01/02 03:45:47;;;;;;;;;;;13.00;99.90;;;;;;5078471;28;19998;-66
2023/01/02 03:48:37;;;;;;;;;;;13.00;99.90;;;;;;5082652;28;19920;-69
2023/01/02 03:51:03;;;;;;;;;;;13.00;99.90;;;;;;5087103;28;19997;-72
2023/01/02 03:53:28;;;;;;;;;;;13.00;99.90;;;;;;5085562;28;19920;-70
2023/01/02 03:56:15;;;;;;;;;;;13.00;99.90;;;;;;5089540;28;20007;-69
2023/01/02 03:58:48;;;;;;;;;;;13.10;99.90;;;;;;5080128;28;20006;-69
2023/01/02 04:01:22;;;;;;;;;;;13.10;99.90;;;;;;5077556;28;19923;-68
2023/01/02 04:03:51;;;;;;;;;;;13.10;99.90;;;;;;5081548;28;19916;-68
2023/01/02 04:06:23;;;;;;;;;;;13.10;99.90;;;;;;5077210;28;20509;-69
2023/01/02 04:08:58;;;;;;;;;;;13.10;99.90;;;;;;5076533;28;19912;-67
2023/01/02 04:11:25;;;;;;;;;;;13.10;99.90;;;;;;5077806;28;19919;-67
2023/01/02 04:13:53;;;;;;;;;;;13.20;99.90;;;;;;5082729;28;20061;-68
2023/01/02 04:16:21;;;;;;;;;;;13.20;99.90;;;;;;5081716;28;19915;-70
2023/01/02 04:18:50;;;;;;;;;;;13.20;99.90;;;;;;5079607;28;19960;-73
2023/01/02 04:21:18;;;;;;;;;;;13.20;99.90;;;;;;5083846;28;20359;-73
2023/01/02 04:23:57;;;;;;;;;;;13.20;99.90;;;;;;5077462;28;19912;-73
2023/01/02 04:26:28;;;;;;;;;;;13.20;99.90;;;;;;5086951;27;19912;-74
2023/01/02 04:28:53;;;;;;;;;;;13.30;99.90;;;;;;5077669;28;19979;-67
2023/01/02 04:31:21;;;;;;;;;;;13.30;99.90;;;;;;5079193;28;20412;-67
2023/01/02 04:33:49;;;;;;;;;;;13.30;99.90;;;;;;5077055;28;20007;-66
2023/01/02 04:36:15;;;;;;;;;;;13.30;99.90;;;;;;5077161;28;19935;-67
2023/01/02 04:38:41;;;;;;;;;;;13.30;99.90;;;;;;5077267;28;19916;-66
2023/01/02 04:41:06;;;;;;;;;;;13.30;99.90;;;;;;5081682;28;19924;-86
2023/01/02 04:43:32;;;;;;;;;;;13.30;99.90;;;;;;5081370;28;19920;-86
2023/01/02 04:45:57;;;;;;;;;;;13.40;99.90;;;;;;5085695;28;19912;-70
2023/01/02 04:48:23;;;;;;;;;;;13.50;99.90;;;;;;5084181;28;19916;-69
2023/01/02 04:50:48;;;;;;;;;;;13.50;99.90;;;;;;5085219;28;19916;-71
2023/01/02 04:53:13;;;;;;;;;;;13.50;99.90;;;;;;5079950;28;20002;-69
2023/01/02 04:55:39;;;;;;;;;;;13.50;99.90;;;;;;5081044;28;20370;-70
2023/01/02 04:58:05;;;;;;;;;;;13.50;99.90;;;;;;5080846;28;19916;-68
2023/01/02 05:00:31;;;;;;;;;;;13.50;99.90;;;;;;5084390;28;19926;-71
2023/01/02 05:02:57;;;;;;;;;;;13.50;99.90;;;;;;5080809;28;19920;-70
2023/01/02 05:05:22;;;;;;;;;;;13.50;99.90;;;;;;5078607;28;19939;-71
2023/01/02 05:07:47;;;;;;;;;;;13.50;99.90;;;;;;5078086;28;19915;-68
2023/01/02 05:10:13;;;;;;;;;;;13.50;99.90;;;;;;5083589;28;19950;-75
2023/01/02 05:12:38;;;;;;;;;;;13.50;99.90;;;;;;5087382;28;20706;-70
2023/01/02 05:15:05;;;;;;;;;;;13.50;99.90;;;;;;5082336;28;19920;-68
2023/01/02 05:17:37;;;;;;;;;;;13.50;99.90;;;;;;5085509;28;20438;-66
2023/01/02 05:20:04;;;;;;;;;;;13.50;99.90;;;;;;5084175;27;20002;-68
2023/01/02 05:25:14;;;;;;;;;;;13.50;99.90;;;;;;5097633;27;19923;-68
2023/01/02 05:27:39;;;;;;;;;;;13.50;99.90;;;;;;5083904;27;19916;-68
2023/01/02 05:30:05;;;;;;;;;;;13.50;99.90;;;;;;5094678;28;19912;-68
2023/01/02 05:32:31;;;;;;;;;;;13.50;99.90;;;;;;5096735;27;19911;-67
2023/01/02 05:34:56;;;;;;;;;;;13.50;99.90;;;;;;5099969;27;19915;-66
2023/01/02 05:37:22;;;;;;;;;;;13.50;99.90;;;;;;5100067;27;20405;-68
2023/01/02 05:39:47;;;;;;;;;;;13.40;99.90;;;;;;5099913;27;19916;-68
2023/01/02 05:42:12;;;;;;;;;;;13.50;99.90;;;;;;5100403;28;19992;-67
2023/01/02 05:44:38;;;;;;;;;;;13.40;99.90;;;;;;5098284;28;20009;-67
2023/01/02 05:47:03;;;;;;;;;;;13.40;99.90;;;;;;5100159;28;19952;-67
2023/01/02 05:49:28;;;;;;;;;;;13.40;99.90;;;;;;5099896;27;19916;-66
2023/01/02 05:51:54;;;;;;;;;;;13.40;99.90;;;;;;5099925;28;20318;-66
2023/01/02 05:54:19;;;;;;;;;;;13.40;99.90;;;;;;5099753;28;19916;-66
2023/01/02 05:56:45;;;;;;;;;;;13.40;99.90;;;;;;5090365;28;19922;-66
2023/01/02 05:59:12;;;;;;;;;;;13.50;99.90;;;;;;5087731;27;19912;-65
2023/01/02 06:01:38;;;;;;;;;;;13.40;99.90;;;;;;5088909;27;19920;-66
2023/01/02 06:04:03;;;;;;;;;;;13.40;99.90;;;;;;5089293;28;19923;-66
2023/01/02 06:06:30;;;;;;;;;;;13.50;99.90;;;;;;5088526;28;19926;-68
2023/01/02 06:08:57;;;;;;;;;;;13.50;99.90;;;;;;5089030;27;19916;-67
2023/01/02 06:11:22;;;;;;;;;;;13.50;99.90;;;;;;5087165;28;19922;-66
2023/01/02 06:13:47;;;;;;;;;;;13.50;99.90;;;;;;5089606;27;19911;-66
2023/01/02 06:16:13;;;;;;;;;;;13.60;99.90;;;;;;5089717;27;20010;-66
2023/01/02 06:18:39;;;;;;;;;;;13.60;99.90;;;;;;5090217;27;19915;-67
2023/01/02 06:21:09;;;;;;;;;;;13.50;99.90;;;;;;5089381;27;20433;-66
2023/01/02 06:23:35;;;;;;;;;;;13.60;99.90;;;;;;5086866;27;20007;-66
2023/01/02 06:26:01;;;;;;;;;;;13.50;99.90;;;;;;5087099;27;20019;-66
2023/01/02 06:28:26;;;;;;;;;;;13.50;99.90;;;;;;5088883;27;19951;-66
2023/01/02 06:30:57;;;;;;;;;;;13.50;99.90;;;;;;5096556;28;19954;-67
2023/01/02 06:33:22;;;;;;;;;;;13.50;99.90;;;;;;5097115;27;19970;-67
2023/01/02 06:35:55;;;;;;;;;;;13.60;99.90;;;;;;5098574;28;19924;-67
2023/01/02 06:38:20;;;;;;;;;;;13.50;99.90;;;;;;5098655;27;20741;-67
2023/01/02 06:40:56;;;;;;;;;;;13.50;99.90;;;;;;5098983;27;19931;-67
2023/01/02 06:43:22;;;;;;;;;;;13.60;99.90;;;;;;5096759;28;20441;-68
2023/01/02 06:45:47;;;;;;;;;;;13.50;99.90;;;;;;5084240;27;20076;-67
2023/01/02 06:48:12;;;;;;;;;;;13.60;99.90;;;;;;5093150;27;20771;-69
2023/01/02 06:50:38;;;;;;;;;;;13.60;99.90;;;;;;5095646;27;20309;-70
2023/01/02 06:53:03;;;;;;;;;;;13.60;99.90;;;;;;5089039;27;20010;-70
2023/01/02 06:55:29;;;;;;;;;;;13.60;99.90;;;;;;5083329;28;19916;-68
2023/01/02 06:57:54;;;;;;;;;;;13.70;99.90;;;;;;5088517;27;19920;-67
2023/01/02 07:00:19;;;;;;;;;;;13.70;99.90;;;;;;5088663;28;19980;-66
2023/01/02 07:02:45;;;;;;;;;;;13.70;99.90;;;;;;5091126;27;20682;-66
2023/01/02 07:05:11;;;;;;;;;;;13.80;99.90;;;;;;5087201;28;20193;-66
2023/01/02 07:07:37;;;;;;;;;;;13.70;99.90;;;;;;5089854;27;19949;-65
2023/01/02 07:10:02;;;;;;;;;;;13.80;99.90;;;;;;5096373;28;19912;-65
2023/01/02 07:12:28;;;;;;;;;;;13.80;99.90;;;;;;5097963;28;19912;-66
2023/01/02 07:14:53;;;;;;;;;;;13.80;99.90;;;;;;5099861;27;19923;-65
2023/01/02 07:17:19;;;;;;;;;;;13.80;99.90;;;;;;5096412;27;19922;-65
2023/01/02 07:19:44;;;;;;;;;;;13.80;99.90;;;;;;5083186;27;19916;-68
2023/01/02 07:22:09;;;;;;;;;;;13.90;99.90;;;;;;5092165;27;20007;-65
2023/01/02 07:24:35;;;;;;;;;;;13.90;99.90;;;;;;5096165;27;19922;-65
2023/01/02 07:27:00;;;;;;;;;;;13.90;99.90;;;;;;5098251;27;19922;-65
2023/01/02 07:29:26;;;;;;;;;;;13.90;99.90;;;;;;5101094;27;20351;-65
2023/01/02 07:31:51;;;;;;;;;;;13.90;99.90;;;;;;5096993;27;19912;-66
2023/01/02 07:34:16;;;;;;;;;;;14.00;99.90;;;;;;5098113;28;20239;-63
2023/01/02 07:36:42;;;;;;;;;;;14.00;99.90;;;;;;5096782;28;19916;-65
2023/01/02 07:39:07;;;;;;;;;;;14.00;99.90;;;;;;5097284;27;20304;-67
2023/01/02 07:41:33;;;;;;;;;;;14.00;99.90;;;;;;5095669;27;19923;-65
2023/01/02 07:43:58;;;;;;;;;;;14.10;99.90;;;;;;5099828;27;19956;-66
2023/01/02 07:46:24;;;;;;;;;;;14.10;99.90;;;;;;5093748;27;19912;-64
2023/01/02 07:48:49;;;;;;;;;;;14.00;99.90;;;;;;5097541;28;20602;-65
2023/01/02 07:51:15;;;;;;;;;;;14.10;99.90;;;;;;5095111;28;19923;-65
2023/01/02 07:53:41;;;;;;;;;;;14.10;99.90;;;;;;5097239;27;19955;-65
2023/01/02 07:56:06;;;;;;;;;;;14.10;99.90;;;;;;5097273;28;19927;-65
2023/01/02 07:58:32;;;;;;;;;;;14.10;99.90;;;;;;5097138;27;19980;-65
2023/01/02 08:00:57;;;;;;;;;;;14.10;99.90;;;;;;5096790;28;20030;-65
2023/01/02 08:03:23;;;;;;;;;;;14.20;99.90;;;;;;5097666;27;20297;-66
2023/01/02 08:05:49;;;;;;;;;;;14.20;99.90;;;;;;5094786;27;19916;-66
2023/01/02 08:08:14;;;;;;;;;;;14.30;99.90;;;;;;5097141;27;19926;-66
2023/01/02 08:10:40;;;;;;;;;;;14.30;99.90;;;;;;5095233;28;20366;-66
2023/01/02 08:13:06;;;;;;;;;;;14.30;99.90;;;;;;5097044;27;19923;-66
2023/01/02 08:15:31;;;;;;;;;;;14.30;99.90;;;;;;5095351;28;19938;-65
2023/01/02 08:17:57;;;;;;;;;;;14.30;99.90;;;;;;5096927;27;19947;-65
2023/01/02 08:20:22;;;;;;;;;;;14.40;99.90;;;;;;5097262;27;19931;-65
2023/01/02 08:22:48;;;;;;;;;;;14.40;99.90;;;;;;5096070;28;19923;-65
2023/01/02 08:25:13;;;;;;;;;;;14.40;99.90;;;;;;5096159;28;19920;-64
2023/01/02 08:27:39;;;;;;;;;;;14.50;99.90;;;;;;5087569;28;19968;-64
2023/01/02 08:30:04;;;;;;;;;;;14.50;99.90;;;;;;5084846;28;20007;-64
2023/01/02 08:32:33;;;;;;;;;;;14.50;99.90;;;;;;5086037;28;19916;-64
2023/01/02 08:34:59;;;;;;;;;;;14.50;99.90;;;;;;5086552;27;19962;-64
2023/01/02 08:37:24;;;;;;;;;;;14.60;99.90;;;;;;5086449;28;19959;-64
2023/01/02 08:39:49;;;;;;;;;;;14.60;99.90;;;;;;5086483;28;19924;-65
2023/01/02 08:42:15;;;;;;;;;;;14.60;99.90;;;;;;5084750;28;20391;-65
2023/01/02 08:44:42;;;;;;;;;;;14.60;99.90;;;;;;5086169;28;20629;-65
2023/01/02 08:47:07;;;;;;;;;;;14.70;99.90;;;;;;5089035;28;20329;-64
2023/01/02 08:49:33;;;;;;;;;;;14.60;99.90;;;;;;5085280;28;19927;-65
2023/01/02 08:51:58;;;;;;;;;;;14.70;99.90;;;;;;5087919;28;20013;-65
2023/01/02 08:54:23;;;;;;;;;;;14.70;99.90;;;;;;5085352;28;20188;-65
2023/01/02 08:56:49;;;;;;;;;;;14.80;99.90;;;;;;5087122;28;19916;-66
2023/01/02 08:59:14;;;;;;;;;;;14.80;99.90;;;;;;5093223;28;19926;-66
2023/01/02 09:01:40;;;;;;;;;;;14.90;99.90;;;;;;5096289;28;19919;-66
2023/01/02 09:04:06;;;;;;;;;;;14.90;99.90;;;;;;5099561;28;20078;-66
2023/01/02 09:06:32;;;;;;;;;;;14.90;99.90;;;;;;5093289;27;19939;-66
2023/01/02 09:08:58;;;;;;;;;;;14.90;99.90;;;;;;5093076;28;19916;-66
2023/01/02 09:11:25;;;;;;;;;;;15.00;99.90;;;;;;5081513;28;19919;-66
2023/01/02 09:13:50;;;;;;;;;;;15.00;99.90;;;;;;5089963;28;20342;-65
2023/01/02 09:16:16;;;;;;;;;;;15.00;99.90;;;;;;5081195;28;19916;-66
2023/01/02 09:18:41;;;;;;;;;;;15.10;99.90;;;;;;5085282;28;19920;-66
2023/01/02 09:21:07;;;;;;;;;;;15.10;99.90;;;;;;5089157;28;19920;-66
2023/01/02 09:23:33;;;;;;;;;;;15.10;99.90;;;;;;5095303;27;19927;-64
2023/01/02 09:26:02;;;;;;;;;;;15.10;99.90;;;;;;5089321;28;19924;-66
2023/01/02 09:28:29;;;;;;;;;;;15.20;99.90;;;;;;5095331;28;20256;-63
2023/01/02 09:30:54;;;;;;;;;;;15.10;99.90;;;;;;5094284;28;20441;-64
2023/01/02 09:33:20;;;;;;;;;;;15.20;99.90;;;;;;5094627;28;19941;-65
2023/01/02 09:35:46;;;;;;;;;;;15.20;99.90;;;;;;5095328;28;19916;-64
2023/01/02 09:38:11;;;;;;;;;;;15.20;99.90;;;;;;5094275;28;19961;-63
2023/01/02 09:40:41;;;;;;;;;;;15.20;99.90;;;;;;5095495;28;19959;-66
2023/01/02 09:43:08;;;;;;;;;;;15.30;99.90;;;;;;5095836;28;19926;-66
2023/01/02 09:45:34;;;;;;;;;;;15.40;99.90;;;;;;5093678;28;19938;-65
2023/01/02 09:48:00;;;;;;;;;;;15.30;99.90;;;;;;5094727;28;20378;-64
2023/01/02 09:50:26;;;;;;;;;;;15.40;99.90;;;;;;5094998;28;19916;-66
2023/01/02 09:52:53;;;;;;;;;;;15.40;99.90;;;;;;5095784;28;20295;-66
2023/01/02 09:55:39;;;;;;;;;;;15.40;99.90;;;;;;5095291;28;20317;-66
2023/01/02 09:58:13;;;;;;;;;;;15.40;99.90;;;;;;5077610;28;20385;-65
2023/01/02 10:00:39;;;;;;;;;;;15.50;99.90;;;;;;5093378;28;19916;-66
2023/01/02 10:03:05;;;;;;;;;;;15.50;99.90;;;;;;5095454;28;19935;-65
2023/01/02 10:05:30;;;;;;;;;;;15.60;99.90;;;;;;5098572;27;19923;-65
2023/01/02 10:08:05;;;;;;;;;;;15.60;99.90;;;;;;5096918;27;19959;-65
2023/01/02 10:10:33;;;;;;;;;;;15.60;99.90;;;;;;5097853;27;19908;-65
2023/01/02 10:13:02;;;;;;;;;;;15.60;99.90;;;;;;5098193;27;19968;-64
2023/01/02 10:15:29;;;;;;;;;;;15.70;99.90;;;;;;5098177;27;20327;-65
2023/01/02 10:17:57;;;;;;;;;;;15.70;99.90;;;;;;5098368;28;19966;-64
2023/01/02 10:20:26;;;;;;;;;;;15.70;99.90;;;;;;5098908;28;19984;-66
2023/01/02 10:22:53;;;;;;;;;;;15.80;99.90;;;;;;5097114;28;19973;-66
2023/01/02 10:25:21;;;;;;;;;;;15.80;99.90;;;;;;5098959;27;19922;-65
2023/01/02 10:27:50;;;;;;;;;;;15.80;99.90;;;;;;5087511;27;19927;-65
2023/01/02 10:30:18;;;;;;;;;;;15.70;99.90;;;;;;5087773;27;20387;-66
2023/01/02 10:32:45;;;;;;;;;;;15.70;99.90;;;;;;5083651;27;20442;-65
2023/01/02 10:35:21;;;;;;;;;;;15.70;99.90;;;;;;5087970;28;19916;-65
2023/01/02 10:37:46;;;;;;;;;;;15.70;99.90;;;;;;5088368;27;19911;-65
2023/01/02 10:40:12;;;;;;;;;;;15.60;99.90;;;;;;5086912;28;20358;-64
2023/01/02 10:42:38;;;;;;;;;;;15.60;99.90;;;;;;5088065;27;19922;-65
2023/01/02 10:45:05;;;;;;;;;;;15.60;99.90;;;;;;5089796;28;19937;-65
2023/01/02 10:47:33;;;;;;;;;;;15.60;99.90;;;;;;5088246;27;19919;-64
2023/01/02 10:49:59;;;;;;;;;;;15.60;99.90;;;;;;5087517;28;19916;-65
2023/01/02 10:52:51;;;;;;;;;;;15.60;99.90;;;;;;5086816;27;19916;-64
2023/01/02 10:55:30;;;;;;;;;;;15.70;99.90;;;;;;5086422;28;19916;-65
2023/01/02 10:58:00;;;;;;;;;;;15.70;99.90;;;;;;5090280;28;19977;-65
2023/01/02 11:00:27;;;;;;;;;;;15.70;99.90;;;;;;5085450;28;19923;-63
2023/01/02 11:03:04;;;;;;;;;;;15.80;99.90;;;;;;5086468;28;20178;-66
2023/01/02 11:05:30;;;;;;;;;;;15.80;99.90;;;;;;5088208;28;20347;-68
2023/01/02 11:07:56;;;;;;;;;;;15.70;99.90;;;;;;5087822;27;20169;-64
2023/01/02 11:10:36;;;;;;;;;;;15.70;99.90;;;;;;5086618;27;20405;-66
2023/01/02 11:13:02;;;;;;;;;;;15.70;99.90;;;;;;5086550;28;20615;-65
2023/01/02 11:15:29;;;;;;;;;;;15.70;99.90;;;;;;5078106;28;19916;-65
2023/01/02 11:17:56;;;;;;;;;;;15.60;99.90;;;;;;5084154;28;19923;-67
2023/01/02 11:20:32;;;;;;;;;;;15.60;99.90;;;;;;5081775;28;19964;-66
2023/01/02 11:23:00;;;;;;;;;;;15.50;99.90;;;;;;5082505;27;20453;-65
2023/01/02 11:25:27;;;;;;;;;;;15.50;99.90;;;;;;5079829;28;19931;-66
2023/01/02 11:27:57;;;;;;;;;;;15.30;99.90;;;;;;5081542;27;19916;-64
2023/01/02 11:30:28;;;;;;;;;;;15.30;99.90;;;;;;5085206;28;19916;-64
2023/01/02 11:33:15;;;;;;;;;;;15.20;99.90;;;;;;5082850;27;20366;-64
2023/01/02 11:35:44;;;;;;;;;;;15.20;99.90;;;;;;5085305;28;19926;-64
2023/01/02 11:38:13;;;;;;;;;;;15.30;99.90;;;;;;5082419;27;20378;-66
2023/01/02 11:40:50;;;;;;;;;;;15.30;99.90;;;;;;5080595;28;19924;-65
2023/01/02 11:46:04;;;;;;;;;;;15.20;99.90;;;;;;5084010;27;20335;-68
2023/01/02 11:48:30;;;;;;;;;;;15.30;99.90;;;;;;5083364;27;19918;-68
2023/01/02 11:50:56;;;;;;;;;;;15.30;99.90;;;;;;5080205;27;19915;-62
2023/01/02 11:53:27;;;;;;;;;;;15.30;99.90;;;;;;5082546;27;20381;-65
2023/01/02 11:56:14;;;;;;;;;;;15.20;99.90;;;;;;5086054;27;19915;-67
2023/01/02 11:59:01;;;;;;;;;;;15.30;99.90;;;;;;5082370;27;19969;-70
2023/01/02 12:01:31;;;;;;;;;;;15.30;99.90;;;;;;5083121;28;19927;-71
2023/01/02 12:03:57;;;;;;;;;;;15.30;99.90;;;;;;5096494;28;20166;-70
2023/01/02 12:06:43;;;;;;;;;;;15.30;99.90;;;;;;5096822;28;20275;-71
2023/01/02 12:09:13;;;;;;;;;;;15.30;99.90;;;;;;5059102;28;19925;-74
2023/01/02 12:11:47;;;;;;;;;;;15.30;99.90;;;;;;5092578;27;19920;-66
2023/01/02 12:14:21;;;;;;;;;;;15.40;99.90;;;;;;5082403;28;20647;-68
2023/01/02 12:17:05;;;;;;;;;;;15.40;99.90;;;;;;5084797;28;19998;-67
2023/01/02 12:19:36;;;;;;;;;;;15.40;99.90;;;;;;5083298;28;20011;-68
2023/01/02 12:22:15;;;;;;;;;;;15.40;99.90;;;;;;5087145;27;19927;-70
2023/01/02 12:24:43;;;;;;;;;;;15.40;99.90;;;;;;5082766;28;19934;-70
2023/01/02 12:27:09;;;;;;;;;;;15.40;99.90;;;;;;5078551;28;20361;-69
2023/01/02 12:29:53;;;;;;;;;;;15.40;99.90;;;;;;5079179;28;19916;-69
2023/01/02 12:32:30;;;;;;;;;;;15.50;99.90;;;;;;5081130;28;19923;-68
2023/01/02 12:34:55;;;;;;;;;;;15.50;99.90;;;;;;5094947;28;20081;-68
2023/01/02 12:37:26;;;;;;;;;;;15.50;99.90;;;;;;5094268;28;19915;-67
2023/01/02 12:40:24;;;;;;;;;;;15.50;99.90;;;;;;5096474;27;19922;-78
2023/01/02 12:43:05;;;;;;;;;;;15.40;99.90;;;;;;5063652;28;19919;-65
2023/01/02 12:45:37;;;;;;;;;;;15.50;99.90;;;;;;5093423;27;19916;-66
2023/01/02 12:48:13;;;;;;;;;;;15.50;99.90;;;;;;5095249;27;20378;-68
2023/01/02 12:50:39;;;;;;;;;;;15.40;99.90;;;;;;5078479;28;19916;-68
2023/01/02 12:53:16;;;;;;;;;;;15.30;99.90;;;;;;5076299;28;19913;-69
2023/01/02 12:55:47;;;;;;;;;;;15.20;99.90;;;;;;5078424;28;20312;-69
2023/01/02 12:58:13;;;;;;;;;;;15.10;99.90;;;;;;5079278;28;19916;-67
2023/01/02 13:00:38;;;;;;;;;;;15.20;99.90;;;;;;5080634;28;20369;-68
2023/01/02 13:03:28;;;;;;;;;;;15.20;99.90;;;;;;5081225;28;19919;-69
2023/01/02 13:05:56;;;;;;;;;;;15.30;99.90;;;;;;5082129;28;20433;-65
2023/01/02 13:08:26;;;;;;;;;;;15.30;99.90;;;;;;5085956;28;20370;-68
2023/01/02 13:10:53;;;;;;;;;;;15.30;99.90;;;;;;5081052;28;20011;-68
2023/01/02 13:13:21;;;;;;;;;;;15.40;99.90;;;;;;5084689;28;19916;-68
2023/01/02 13:15:49;;;;;;;;;;;15.40;99.90;;;;;;5085775;28;19954;-69
2023/01/02 13:18:20;;;;;;;;;;;15.40;99.90;;;;;;5093148;28;19922;-69
2023/01/02 13:20:59;;;;;;;;;;;15.40;99.90;;;;;;5096004;28;20438;-69
2023/01/02 13:23:38;;;;;;;;;;;15.50;99.90;;;;;;5095994;28;19924;-68
2023/01/02 13:26:08;;;;;;;;;;;15.50;99.90;;;;;;5094102;28;19916;-68
2023/01/02 13:28:41;;;;;;;;;;;15.50;99.90;;;;;;5095810;28;19989;-68
2023/01/02 13:31:09;;;;;;;;;;;15.50;99.90;;;;;;5095925;28;19927;-68
2023/01/02 13:33:38;;;;;;;;;;;15.60;99.90;;;;;;5095120;28;19927;-69
2023/01/02 13:36:16;;;;;;;;;;;15.60;99.90;;;;;;5095961;28;19922;-69
2023/01/02 13:38:43;;;;;;;;;;;15.60;99.90;;;;;;5096054;28;19916;-68
2023/01/02 13:41:12;;;;;;;;;;;15.60;99.90;;;;;;5096275;27;19931;-69
2023/01/02 13:43:38;;;;;;;;;;;15.60;99.90;;;;;;5098548;28;19916;-68
2023/01/02 13:46:03;;;;;;;;;;;15.60;99.90;;;;;;5097177;27;19923;-69
2023/01/02 13:48:33;;;;;;;;;;;15.50;99.90;;;;;;5083901;28;19919;-70
2023/01/02 13:51:06;;;;;;;;;;;15.50;99.90;;;;;;5084909;27;19912;-68
2023/01/02 13:53:37;;;;;;;;;;;15.50;99.90;;;;;;5098334;27;19915;-67
2023/01/02 13:56:04;;;;;;;;;;;15.50;99.90;;;;;;5086869;27;20342;-68
2023/01/02 13:58:38;;;;;;;;;;;15.60;99.90;;;;;;5078370;27;19916;-70
2023/01/02 14:01:25;;;;;;;;;;;15.50;99.90;;;;;;5087489;28;19963;-70
2023/01/02 14:04:06;;;;;;;;;;;15.50;99.90;;;;;;5081359;27;19923;-64
2023/01/02 14:06:32;;;;;;;;;;;15.50;99.90;;;;;;5083430;28;19923;-65
2023/01/02 14:09:04;;;;;;;;;;;15.50;99.90;;;;;;5080771;28;19915;-65
2023/01/02 14:11:47;;;;;;;;;;;15.50;99.90;;;;;;5085925;27;19939;-68
2023/01/02 14:14:14;;;;;;;;;;;15.50;99.90;;;;;;5086921;27;19916;-68
2023/01/02 14:16:58;;;;;;;;;;;15.50;99.90;;;;;;5089094;28;19919;-68
2023/01/02 14:19:24;;;;;;;;;;;15.50;99.90;;;;;;5082454;28;19927;-66
2023/01/02 14:21:52;;;;;;;;;;;15.50;99.90;;;;;;5084256;28;19924;-64
2023/01/02 14:24:22;;;;;;;;;;;15.40;99.90;;;;;;5082421;28;19977;-67
2023/01/02 14:26:52;;;;;;;;;;;15.40;99.90;;;;;;5084158;28;19915;-66
2023/01/02 14:29:18;;;;;;;;;;;15.40;99.90;;;;;;5086206;28;19920;-67
2023/01/02 14:31:45;;;;;;;;;;;15.40;99.90;;;;;;5083078;28;20373;-67